Time;durP1;ratioP1;P1;durP2;ratioP2;P2;SDS_P1;SDS_P2;PMS_P1;PMS_P2;Temp;Humidity;BMP_temperature;BMP_pressure;BME280_temperature;BME280_humidity;BME280_pressure;Samples;Min_cycle;Max_cycle;Signal;HPM_P1;HPM_P2
2022/09/18 00:00:38;;;;;;;20.30;9.90;;;;;;;40.12;35.50;101039.72;6101492;23;20512;-76
2022/09/18 00:03:04;;;;;;;21.67;11.23;;;;;;;39.70;36.51;101033.81;6100546;23;20386;-77
2022/09/18 00:05:31;;;;;;;20.40;9.50;;;;;;;39.74;36.18;101025.88;6100939;23;20405;-76
2022/09/18 00:07:57;;;;;;;30.83;8.73;;;;;;;39.52;37.12;101021.28;6101573;23;20456;-76
2022/09/18 00:10:23;;;;;;;25.73;8.30;;;;;;;39.32;37.34;101021.81;6099999;23;20398;-76
2022/09/18 00:12:49;;;;;;;18.63;8.80;;;;;;;39.24;37.47;101015.25;6099279;23;20401;-76
2022/09/18 00:15:15;;;;;;;20.53;10.20;;;;;;;39.52;36.73;101012.34;6125518;23;20398;-76
2022/09/18 00:17:41;;;;;;;21.63;8.37;;;;;;;39.86;35.96;101011.69;6099155;23;20154;-77
2022/09/18 00:20:07;;;;;;;21.37;10.77;;;;;;;40.26;35.57;101006.97;6099238;23;20178;-76
2022/09/18 00:22:34;;;;;;;18.97;9.93;;;;;;;40.06;35.97;101004.88;6099054;23;20162;-76
2022/09/18 00:25:00;;;;;;;18.10;9.53;;;;;;;40.08;35.94;101008.84;6099756;23;20410;-74
2022/09/18 00:27:26;;;;;;;16.03;8.97;;;;;;;39.94;35.75;101003.53;6101561;23;20724;-75
2022/09/18 00:29:52;;;;;;;16.50;8.70;;;;;;;39.60;36.63;101003.44;6127357;23;20723;-75
2022/09/18 00:32:18;;;;;;;21.27;9.70;;;;;;;39.75;35.90;101001.09;6127606;23;20155;-74
2022/09/18 00:34:44;;;;;;;28.47;11.13;;;;;;;39.97;35.88;100999.41;6101276;23;20161;-74
2022/09/18 00:37:09;;;;;;;26.70;10.67;;;;;;;40.12;35.52;100996.25;6101771;23;20386;-74
2022/09/18 00:39:35;;;;;;;34.17;14.23;;;;;;;40.26;35.38;100990.66;6127404;23;20268;-74
2022/09/18 00:42:01;;;;;;;19.17;9.40;;;;;;;39.74;35.79;100993.28;6127181;23;20488;-73
2022/09/18 00:44:46;;;;;;;23.40;8.67;;;;;;;39.72;35.98;100992.81;6127591;23;20875;-74
2022/09/18 00:47:31;;;;;;;24.10;9.63;;;;;;;39.81;35.79;100987.38;6127319;23;20362;-75
2022/09/18 00:50:06;;;;;;;18.07;9.80;;;;;;;39.49;36.49;100971.13;6101372;23;20914;-75
2022/09/18 00:52:53;;;;;;;27.63;11.63;;;;;;;39.71;36.60;100977.59;6101039;23;20921;-75
2022/09/18 00:55:26;;;;;;;26.53;9.87;;;;;;;39.56;36.53;100980.72;6126991;23;20372;-75
2022/09/18 00:57:55;;;;;;;18.73;10.10;;;;;;;39.22;37.17;100972.13;6126984;23;20362;-74
2022/09/18 01:00:22;;;;;;;23.40;10.93;;;;;;;39.54;36.80;100967.47;6100770;23;20425;-74
2022/09/18 01:02:48;;;;;;;34.27;10.50;;;;;;;39.42;36.80;100965.38;6100868;23;20386;-74
2022/09/18 01:05:20;;;;;;;21.50;8.20;;;;;;;39.11;37.42;100968.09;6100970;23;20858;-74
2022/09/18 01:08:26;;;;;;;22.30;7.83;;;;;;;39.41;36.73;100960.22;6100792;23;20799;-74
2022/09/18 01:10:59;;;;;;;25.33;12.03;;;;;;;39.93;35.88;100963.13;6024648;23;20468;-74
2022/09/18 01:13:49;;;;;;;28.33;11.27;;;;;;;40.15;35.85;100960.31;6100856;23;20394;-73
2022/09/18 01:16:26;;;;;;;29.60;13.83;;;;;;;40.35;35.41;100958.06;6100620;23;20848;-75
2022/09/18 01:19:10;;;;;;;23.30;10.30;;;;;;;40.57;35.22;100959.81;6100732;23;20456;-75
2022/09/18 01:21:46;;;;;;;28.67;11.83;;;;;;;40.22;35.80;100963.34;6126819;23;20422;-75
2022/09/18 01:24:58;;;;;;;25.23;11.40;;;;;;;40.31;36.02;100963.31;6127095;23;20358;-76
2022/09/18 01:27:51;;;;;;;40.33;14.43;;;;;;;40.25;35.92;100954.53;6013902;23;20393;-76
2022/09/18 01:30:17;;;;;;;22.93;10.30;;;;;;;40.40;35.25;100960.63;6098696;23;20410;-76
2022/09/18 01:32:56;;;;;;;29.77;12.33;;;;;;;40.21;35.43;100947.34;6100691;23;20387;-75
2022/09/18 01:35:24;;;;;;;19.10;8.20;;;;;;;39.65;36.51;100955.22;6100577;23;20456;-74
2022/09/18 01:38:02;;;;;;;22.20;9.57;;;;;;;39.61;36.52;100950.75;6127098;23;20355;-75
2022/09/18 01:40:32;;;;;;;21.80;10.93;;;;;;;39.70;36.56;100954.28;6100445;23;20446;-75
2022/09/18 01:43:03;;;;;;;27.17;11.23;;;;;;;39.39;37.12;100949.69;6120856;23;20438;-73
2022/09/18 01:45:33;;;;;;;15.97;9.43;;;;;;;39.46;37.11;100943.81;6124953;23;20398;-74
2022/09/18 01:48:12;;;;;;;14.23;7.90;;;;;;;39.43;36.95;100950.69;6124861;23;20382;-74
2022/09/18 01:50:45;;;;;;;23.23;10.37;;;;;;;39.27;37.38;100941.34;6124929;23;20371;-74
2022/09/18 01:53:15;;;;;;;25.63;11.03;;;;;;;39.00;37.79;100947.75;6124794;23;20375;-74
2022/09/18 01:55:55;;;;;;;31.03;10.30;;;;;;;39.26;37.28;100937.03;6124836;23;20401;-75
2022/09/18 01:58:25;;;;;;;30.03;9.13;;;;;;;39.67;36.74;100939.44;6124676;23;20466;-75
2022/09/18 02:00:55;;;;;;;16.73;8.27;;;;;;;39.45;36.83;100928.63;6124802;23;20418;-75
2022/09/18 02:03:26;;;;;;;34.30;11.63;;;;;;;39.24;37.28;100931.13;6126763;23;20861;-74
2022/09/18 02:06:08;;;;;;;23.67;8.20;;;;;;;38.93;37.85;100928.41;6124818;23;20374;-74
2022/09/18 02:08:43;;;;;;;17.20;8.53;;;;;;;39.20;37.42;100927.44;6124572;23;20947;-74
2022/09/18 02:11:15;;;;;;;15.03;8.27;;;;;;;39.21;37.66;100924.41;6124591;23;20742;-75
2022/09/18 02:14:25;;;;;;;27.57;10.80;;;;;;;38.89;37.90;100930.94;6126557;23;20382;-74
2022/09/18 02:17:05;;;;;;;31.10;12.00;;;;;;;39.72;37.11;100924.91;6122923;23;20542;-74
2022/09/18 02:19:39;;;;;;;17.50;8.00;;;;;;;39.68;36.72;100926.66;6124543;23;20378;-76
2022/09/18 02:22:09;;;;;;;13.77;8.20;;;;;;;39.31;37.05;100928.75;6124563;23;20406;-75
2022/09/18 02:24:38;;;;;;;17.70;8.07;;;;;;;39.36;36.86;100927.81;6126617;23;20816;-75
2022/09/18 02:27:07;;;;;;;19.67;8.03;;;;;;;39.07;37.47;100925.59;6124402;23;20390;-75
2022/09/18 02:29:34;;;;;;;13.70;8.00;;;;;;;38.84;38.01;100919.44;6124490;23;20386;-74
2022/09/18 02:32:00;;;;;;;20.40;9.40;;;;;;;39.05;37.44;100919.69;6124429;23;20437;-74
2022/09/18 02:34:28;;;;;;;35.47;11.63;;;;;;;38.35;39.09;100921.94;6124454;23;20397;-74
2022/09/18 02:37:24;;;;;;;24.17;7.50;;;;;;;38.70;38.15;100925.69;6124315;23;20382;-74
2022/09/18 02:39:56;;;;;;;18.47;9.43;;;;;;;39.56;36.84;100937.31;6124377;23;20480;-75
2022/09/18 02:43:15;;;;;;;17.93;8.50;;;;;;;39.42;36.99;100929.28;6124181;23;20906;-75
2022/09/18 02:46:19;;;;;;;20.33;9.00;;;;;;;39.33;36.99;100931.94;6121698;23;20428;-75
2022/09/18 02:48:56;;;;;;;28.87;10.87;;;;;;;39.09;37.13;100928.78;6124300;23;20461;-76
2022/09/18 02:51:34;;;;;;;19.47;8.57;;;;;;;39.23;37.17;100933.06;6124047;23;20381;-74
2022/09/18 02:54:06;;;;;;;26.90;10.30;;;;;;;39.42;36.87;100932.78;6126303;23;20850;-74
2022/09/18 02:56:38;;;;;;;21.43;10.13;;;;;;;39.07;37.41;100933.75;6124172;23;20421;-74
2022/09/18 02:59:16;;;;;;;21.87;10.03;;;;;;;39.16;37.31;100934.59;6126091;23;20502;-74
2022/09/18 03:01:44;;;;;;;15.60;9.70;;;;;;;39.26;37.32;100934.31;6124310;23;20390;-74
2022/09/18 03:04:18;;;;;;;23.33;11.40;;;;;;;39.32;37.66;100940.41;6124265;23;20862;-75
2022/09/18 03:06:44;;;;;;;26.30;11.17;;;;;;;39.27;37.50;100929.69;6124064;23;20426;-74
2022/09/18 03:09:10;;;;;;;17.73;11.37;;;;;;;39.37;37.17;100938.38;6124198;23;20486;-74
2022/09/18 03:11:36;;;;;;;24.13;8.37;;;;;;;38.93;37.80;100936.56;6124262;23;20525;-74
2022/09/18 03:14:02;;;;;;;32.53;9.57;;;;;;;38.98;37.85;100944.56;6124082;23;20406;-74
2022/09/18 03:16:28;;;;;;;19.43;8.00;;;;;;;38.94;37.75;100951.72;6124226;23;20392;-74
2022/09/18 03:18:54;;;;;;;21.50;8.90;;;;;;;39.16;37.68;100945.44;6123933;23;20465;-74
2022/09/18 03:21:20;;;;;;;24.73;8.00;;;;;;;39.27;37.46;100954.91;6123783;23;20192;-75
2022/09/18 03:23:46;;;;;;;19.57;8.73;;;;;;;39.42;37.29;100959.94;6123968;23;20404;-75
2022/09/18 03:26:12;;;;;;;25.47;11.03;;;;;;;39.33;36.93;100967.22;6123877;23;20572;-75
2022/09/18 03:28:38;;;;;;;26.03;10.60;;;;;;;39.50;37.20;100961.06;6124049;23;20162;-74
2022/09/18 03:31:04;;;;;;;19.03;8.90;;;;;;;39.44;37.00;100962.34;6123923;23;20386;-74
2022/09/18 03:33:30;;;;;;;28.37;10.23;;;;;;;39.19;37.41;100959.19;6124058;23;20154;-74
2022/09/18 03:35:56;;;;;;;16.40;7.70;;;;;;;39.16;37.66;100957.09;6124141;23;20461;-74
2022/09/18 03:38:21;;;;;;;16.80;9.43;;;;;;;39.16;37.66;100959.81;6124075;23;20233;-75
2022/09/18 03:40:48;;;;;;;21.73;8.23;;;;;;;39.17;37.31;100964.16;6123994;23;20521;-75
2022/09/18 03:43:14;;;;;;;19.43;8.93;;;;;;;39.17;37.14;100966.88;6123688;23;20225;-76
2022/09/18 03:45:39;;;;;;;39.90;10.03;;;;;;;38.95;37.84;100970.38;6125923;23;20378;-75
2022/09/18 03:48:06;;;;;;;22.70;9.50;;;;;;;39.39;37.00;100967.91;6123903;23;20229;-74
2022/09/18 03:50:31;;;;;;;24.70;9.07;;;;;;;39.50;36.85;100963.78;6124337;23;20208;-74
2022/09/18 03:52:57;;;;;;;22.50;10.37;;;;;;;39.57;36.75;100974.97;6123977;23;20818;-74
2022/09/18 03:55:23;;;;;;;17.70;9.90;;;;;;;39.48;36.91;100982.31;6123821;23;20154;-74
2022/09/18 03:57:49;;;;;;;34.37;10.53;;;;;;;39.50;36.91;100986.31;6124300;23;20185;-73
2022/09/18 04:00:16;;;;;;;21.43;9.17;;;;;;;39.68;37.00;100980.97;6123887;23;20182;-75
2022/09/18 04:02:43;;;;;;;26.40;8.57;;;;;;;39.52;37.32;100980.56;6123884;23;20441;-75
2022/09/18 04:05:09;;;;;;;20.70;8.17;;;;;;;39.80;37.00;100988.50;6123957;23;20472;-76
2022/09/18 04:07:36;;;;;;;15.40;9.40;;;;;;;39.43;37.72;100982.44;6123832;23;20386;-75
2022/09/18 04:10:02;;;;;;;29.40;10.90;;;;;;;39.60;37.57;100987.97;6123777;23;20402;-74
2022/09/18 04:12:28;;;;;;;22.77;10.50;;;;;;;39.45;37.67;100989.16;6125838;23;20409;-74
2022/09/18 04:14:54;;;;;;;22.17;9.70;;;;;;;39.80;36.95;100985.78;6123724;23;20390;-74
2022/09/18 04:17:20;;;;;;;26.90;11.83;;;;;;;39.71;37.07;100993.88;6123847;23;20820;-75
2022/09/18 04:19:46;;;;;;;17.00;9.97;;;;;;;39.44;37.35;101006.56;6123654;23;20201;-74
2022/09/18 04:22:12;;;;;;;21.10;9.07;;;;;;;39.30;37.00;100992.28;6125803;23;20358;-75
2022/09/18 04:24:38;;;;;;;19.33;8.13;;;;;;;39.62;36.42;101001.22;6123949;23;20538;-76
2022/09/18 04:27:05;;;;;;;35.20;12.17;;;;;;;39.67;36.50;101003.81;6123740;23;20485;-75
2022/09/18 04:29:31;;;;;;;25.33;11.67;;;;;;;39.32;36.74;101011.78;6123845;23;20381;-75
2022/09/18 04:31:57;;;;;;;22.03;9.40;;;;;;;39.60;36.40;101009.69;6125744;23;20397;-75
2022/09/18 04:34:23;;;;;;;20.00;9.90;;;;;;;39.74;36.70;101010.38;6124985;23;20445;-76
2022/09/18 04:36:49;;;;;;;17.17;8.90;;;;;;;39.60;36.64;101001.56;6125660;23;20453;-76
2022/09/18 04:39:15;;;;;;;20.90;8.77;;;;;;;39.45;37.03;101010.06;6125466;23;20178;-74
2022/09/18 04:41:44;;;;;;;19.80;9.77;;;;;;;39.87;35.91;101005.94;6125347;23;20202;-75
2022/09/18 04:44:10;;;;;;;21.40;10.13;;;;;;;40.10;36.07;101014.78;6125457;23;20386;-74
2022/09/18 04:46:36;;;;;;;23.60;9.83;;;;;;;40.48;34.79;101014.19;6125481;23;20409;-74
2022/09/18 04:49:02;;;;;;;23.27;9.60;;;;;;;39.90;35.96;101015.34;6125330;23;20317;-75
2022/09/18 04:51:28;;;;;;;28.53;12.23;;;;;;;39.86;36.21;101017.13;6125346;23;20386;-75
2022/09/18 04:53:53;;;;;;;34.53;17.53;;;;;;;38.91;38.27;101031.75;6125500;23;20738;-75
2022/09/18 04:56:19;;;;;;;26.70;14.17;;;;;;;38.87;37.90;101035.44;6125142;23;20801;-75
2022/09/18 04:58:45;;;;;;;29.63;11.80;;;;;;;38.67;38.72;101042.09;6125448;23;20158;-75
2022/09/18 05:01:11;;;;;;;26.10;10.50;;;;;;;38.94;38.00;101047.44;6125322;23;20186;-75
2022/09/18 05:03:37;;;;;;;32.80;13.43;;;;;;;39.20;37.63;101041.41;6125032;23;20921;-75
2022/09/18 05:06:04;;;;;;;28.30;12.50;;;;;;;39.24;37.50;101034.25;6125254;23;20402;-75
2022/09/18 05:08:31;;;;;;;18.47;9.90;;;;;;;38.96;37.98;101053.34;6125365;23;20469;-75
2022/09/18 05:10:57;;;;;;;28.33;9.67;;;;;;;39.07;38.17;101051.19;6125443;23;20835;-76
2022/09/18 05:13:23;;;;;;;21.50;9.07;;;;;;;38.34;39.44;101063.16;6125534;23;20414;-75
2022/09/18 05:15:54;;;;;;;17.00;9.27;;;;;;;38.38;39.76;101047.91;6125178;23;20166;-74
2022/09/18 05:18:20;;;;;;;23.00;11.23;;;;;;;38.87;38.92;101049.78;6125236;23;20438;-74
2022/09/18 05:20:46;;;;;;;33.33;14.23;;;;;;;38.95;38.04;101048.25;6125202;23;20461;-74
2022/09/18 05:23:12;;;;;;;30.43;12.50;;;;;;;39.08;36.87;101057.41;6125160;23;20161;-74
2022/09/18 05:25:39;;;;;;;26.20;11.37;;;;;;;39.02;37.38;101055.94;6127124;23;20142;-75
2022/09/18 05:28:05;;;;;;;20.03;11.20;;;;;;;39.03;37.39;101058.34;6125129;23;20747;-74
2022/09/18 05:30:31;;;;;;;39.37;13.40;;;;;;;39.60;36.39;101058.56;6125166;23;20382;-74
2022/09/18 05:33:02;;;;;;;43.37;17.00;;;;;;;39.73;36.24;101052.22;6125045;23;20410;-73
2022/09/18 05:35:30;;;;;;;37.80;13.73;;;;;;;39.76;36.28;101058.94;6125107;23;20382;-74
2022/09/18 05:37:56;;;;;;;43.60;15.13;;;;;;;39.98;36.33;101058.84;6125117;23;20389;-74
2022/09/18 05:40:25;;;;;;;26.10;11.33;;;;;;;40.21;35.74;101066.94;6126835;23;20414;-74
2022/09/18 05:42:52;;;;;;;28.93;11.90;;;;;;;40.25;36.06;101081.47;6124754;23;20469;-75
2022/09/18 05:45:19;;;;;;;29.13;11.97;;;;;;;40.41;36.04;101088.06;6124830;23;20378;-74
2022/09/18 05:48:04;;;;;;;26.60;11.97;;;;;;;40.20;36.60;101089.75;6125022;23;20386;-74
2022/09/18 05:50:31;;;;;;;27.67;13.47;;;;;;;39.86;37.25;101093.97;6124849;23;20794;-74
2022/09/18 05:53:03;;;;;;;25.30;13.20;;;;;;;39.44;37.56;101095.34;6124990;23;20432;-74
2022/09/18 05:55:30;;;;;;;21.63;9.40;;;;;;;39.73;37.17;101098.38;6124823;23;20382;-74
2022/09/18 05:57:57;;;;;;;22.50;12.57;;;;;;;39.63;36.93;101095.94;6124855;23;20644;-74
2022/09/18 06:00:25;;;;;;;27.10;10.67;;;;;;;39.92;36.71;101091.91;6124762;23;20430;-74
2022/09/18 06:03:00;;;;;;;21.57;11.60;;;;;;;40.06;36.83;101099.97;6124876;23;20390;-73
2022/09/18 06:05:28;;;;;;;18.53;10.43;;;;;;;39.91;36.92;101109.31;6124838;23;20382;-74
2022/09/18 06:07:56;;;;;;;17.20;9.30;;;;;;;39.83;37.15;101112.78;6124597;23;20388;-74
2022/09/18 06:10:22;;;;;;;15.70;10.30;;;;;;;39.89;36.86;101108.81;6124757;23;20462;-74
2022/09/18 06:12:48;;;;;;;21.87;11.90;;;;;;;39.61;37.17;101103.59;6124576;23;20393;-75
2022/09/18 06:15:14;;;;;;;26.57;11.93;;;;;;;39.81;37.25;101117.75;6126805;23;20378;-75
2022/09/18 06:17:41;;;;;;;31.07;13.70;;;;;;;39.93;36.96;101118.75;6124729;23;20762;-75
2022/09/18 06:20:08;;;;;;;23.13;10.97;;;;;;;40.02;36.69;101129.63;6124507;23;20461;-76
2022/09/18 06:22:35;;;;;;;18.80;12.20;;;;;;;39.99;36.65;101125.66;6124706;23;20756;-76
2022/09/18 06:25:02;;;;;;;26.53;12.47;;;;;;;39.83;36.94;101126.38;6124539;23;20795;-73
2022/09/18 06:27:28;;;;;;;29.40;9.33;;;;;;;40.02;36.75;101127.75;6124636;23;20481;-74
2022/09/18 06:29:54;;;;;;;25.63;11.13;;;;;;;39.79;37.04;101128.13;6126459;23;20432;-74
2022/09/18 06:32:20;;;;;;;22.03;11.33;;;;;;;39.83;36.65;101127.16;6124480;23;20154;-74
2022/09/18 06:34:46;;;;;;;20.07;9.37;;;;;;;40.00;36.79;101140.03;6124601;23;20398;-74
2022/09/18 06:37:14;;;;;;;27.43;11.40;;;;;;;40.39;36.13;101131.06;6126369;23;20370;-74
2022/09/18 06:39:40;;;;;;;23.00;11.17;;;;;;;39.99;36.71;101138.44;6124430;23;20533;-74
2022/09/18 06:42:06;;;;;;;22.03;10.73;;;;;;;40.14;36.72;101139.94;6124218;23;20461;-74
2022/09/18 06:44:32;;;;;;;34.83;12.70;;;;;;;40.13;36.75;101143.78;6124269;23;20382;-74
2022/09/18 06:46:58;;;;;;;31.53;13.47;;;;;;;40.05;37.00;101147.28;6124298;23;20387;-74
2022/09/18 06:49:24;;;;;;;31.30;15.10;;;;;;;40.12;36.97;101156.56;6124284;23;20242;-74
2022/09/18 06:51:50;;;;;;;28.83;12.30;;;;;;;40.25;36.79;101146.69;6124275;23;20390;-76
2022/09/18 06:54:17;;;;;;;22.20;10.13;;;;;;;40.31;36.61;101166.38;6124434;23;20162;-76
2022/09/18 06:56:45;;;;;;;28.40;11.07;;;;;;;40.36;36.49;101168.94;6123835;23;20178;-76
2022/09/18 06:59:11;;;;;;;34.63;10.43;;;;;;;40.34;36.25;101171.19;6124283;23;20381;-76
2022/09/18 07:01:37;;;;;;;20.30;11.07;;;;;;;40.30;36.16;101173.72;6124006;23;20516;-76
2022/09/18 07:04:03;;;;;;;24.57;13.13;;;;;;;39.89;37.51;101179.44;6126291;23;20457;-74
2022/09/18 07:06:29;;;;;;;32.93;15.80;;;;;;;40.18;36.86;101171.63;6124070;23;20181;-75
2022/09/18 07:08:55;;;;;;;50.57;20.57;;;;;;;40.21;36.76;101171.00;6126131;23;20379;-74
2022/09/18 07:11:21;;;;;;;30.17;14.50;;;;;;;40.32;36.45;101184.28;6126307;23;20390;-74
2022/09/18 07:13:50;;;;;;;23.57;11.13;;;;;;;39.88;37.51;101186.78;6124006;23;20393;-76
2022/09/18 07:16:16;;;;;;;31.23;11.60;;;;;;;40.29;36.76;101186.53;6124228;23;20468;-76
2022/09/18 07:18:42;;;;;;;26.23;11.10;;;;;;;40.31;37.06;101204.44;6124157;23;20378;-74
2022/09/18 07:21:08;;;;;;;31.87;14.90;;;;;;;40.18;37.10;101187.91;6123696;23;20428;-76
2022/09/18 07:23:34;;;;;;;26.23;13.03;;;;;;;40.41;36.97;101198.72;6124159;23;20851;-76
2022/09/18 07:26:02;;;;;;;25.53;10.53;;;;;;;39.93;37.42;101196.72;6124041;23;20510;-74
2022/09/18 07:28:28;;;;;;;32.73;12.63;;;;;;;40.41;36.67;101201.44;6124090;23;20522;-74
2022/09/18 07:30:55;;;;;;;18.47;10.70;;;;;;;40.31;36.88;101202.50;6124078;23;20437;-78
2022/09/18 07:33:21;;;;;;;39.57;15.33;;;;;;;40.43;36.64;101207.34;6121690;23;20900;-74
2022/09/18 07:35:47;;;;;;;24.17;11.40;;;;;;;40.22;36.86;101212.56;6123257;23;20393;-74
2022/09/18 07:38:13;;;;;;;28.93;10.37;;;;;;;39.85;37.13;101211.06;6123515;23;20734;-73
2022/09/18 07:40:41;;;;;;;32.73;15.70;;;;;;;39.46;37.57;101224.19;6123950;23;20444;-73
2022/09/18 07:43:10;;;;;;;31.87;14.63;;;;;;;39.80;36.83;101224.78;6123512;23;20426;-74
2022/09/18 07:45:36;;;;;;;37.17;11.63;;;;;;;39.99;36.55;101225.38;6098602;23;20743;-74
2022/09/18 07:48:04;;;;;;;25.47;12.50;;;;;;;39.46;37.25;101226.09;6098773;23;20870;-73
2022/09/18 07:50:31;;;;;;;26.53;14.40;;;;;;;39.26;37.70;101238.25;6125077;23;20354;-74
2022/09/18 07:53:00;;;;;;;32.77;12.37;;;;;;;39.34;37.53;101239.44;6098868;23;20401;-74
2022/09/18 07:55:27;;;;;;;25.37;13.93;;;;;;;39.34;37.61;101228.56;6098857;23;20827;-74
2022/09/18 07:57:58;;;;;;;32.33;11.30;;;;;;;39.79;36.33;101228.63;6098498;23;20727;-74
2022/09/18 08:00:29;;;;;;;19.13;11.00;;;;;;;39.74;36.51;101227.63;6098271;23;20965;-74
2022/09/18 08:03:13;;;;;;;17.80;10.10;;;;;;;39.79;36.56;101244.91;6122848;23;20368;-75
2022/09/18 08:05:40;;;;;;;20.67;12.00;;;;;;;40.11;36.33;101244.63;6091737;23;20393;-76
2022/09/18 08:08:15;;;;;;;16.87;10.00;;;;;;;39.97;36.89;101250.13;6123741;23;20362;-77
2022/09/18 08:10:43;;;;;;;25.30;11.50;;;;;;;40.28;36.17;101258.31;6097879;23;20952;-77
2022/09/18 08:13:11;;;;;;;30.17;12.63;;;;;;;40.24;36.76;101254.59;6098598;23;20386;-74
2022/09/18 08:15:39;;;;;;;24.27;12.50;;;;;;;40.72;36.17;101253.84;6098911;23;20388;-78
2022/09/18 08:18:06;;;;;;;26.57;11.70;;;;;;;39.89;36.89;101250.06;6099014;23;20374;-76
2022/09/18 08:20:33;;;;;;;34.23;13.00;;;;;;;39.96;36.93;101255.84;6098290;23;21012;-78
2022/09/18 08:23:22;;;;;;;42.37;12.87;;;;;;;39.96;36.49;101255.84;6099549;23;20374;-78
2022/09/18 08:25:48;;;;;;;28.30;12.03;;;;;;;40.39;35.61;101258.84;6099002;23;20405;-78
2022/09/18 08:28:16;;;;;;;22.73;13.07;;;;;;;40.36;35.79;101255.94;6100172;23;20402;-78
2022/09/18 08:30:42;;;;;;;28.57;12.73;;;;;;;40.52;35.67;101265.31;6127114;23;20356;-75
2022/09/18 08:33:09;;;;;;;21.00;11.60;;;;;;;40.35;36.29;101260.56;6101064;23;20398;-75
2022/09/18 08:35:36;;;;;;;35.07;12.20;;;;;;;39.99;36.37;101263.41;6100845;23;20378;-75
2022/09/18 08:38:02;;;;;;;23.90;11.10;;;;;;;40.50;35.53;101273.75;6100729;23;20962;-75
2022/09/18 08:40:57;;;;;;;20.97;9.53;;;;;;;40.53;35.01;101278.59;6100772;23;20414;-75
2022/09/18 08:43:51;;;;;;;20.10;10.57;;;;;;;39.95;35.85;101270.56;6088499;23;20941;-74
2022/09/18 08:46:40;;;;;;;28.40;10.67;;;;;;;40.18;35.40;101268.66;6100638;23;20846;-75
2022/09/18 08:49:25;;;;;;;30.50;12.67;;;;;;;40.38;35.57;101264.56;6101012;23;20393;-75
2022/09/18 08:52:10;;;;;;;19.03;10.90;;;;;;;40.87;34.27;101259.94;6100862;23;20859;-75
2022/09/18 08:54:51;;;;;;;19.67;10.77;;;;;;;40.84;34.92;101261.41;6100956;23;20393;-74
2022/09/18 08:57:20;;;;;;;22.20;12.33;;;;;;;40.76;34.30;101259.44;6100841;23;20393;-77
2022/09/18 08:59:55;;;;;;;27.27;9.77;;;;;;;40.86;34.53;101255.63;6126126;23;20362;-75
2022/09/18 09:02:34;;;;;;;23.13;13.63;;;;;;;40.22;35.15;101259.56;6126883;23;20358;-76
2022/09/18 09:05:07;;;;;;;22.60;10.60;;;;;;;40.51;34.74;101261.75;6101065;23;20392;-75
2022/09/18 09:07:58;;;;;;;15.20;9.20;;;;;;;41.21;33.88;101264.66;6099592;23;20386;-75
2022/09/18 09:10:37;;;;;;;18.90;8.70;;;;;;;40.59;34.40;101270.28;6104427;23;20718;-76
2022/09/18 09:13:33;;;;;;;22.53;10.37;;;;;;;40.63;34.73;101257.66;6099438;23;20847;-76
2022/09/18 09:16:12;;;;;;;21.60;11.00;;;;;;;41.00;34.16;101254.38;6126560;23;20359;-77
2022/09/18 09:19:15;;;;;;;21.30;10.23;;;;;;;40.80;34.21;101263.13;6100381;23;20389;-77
2022/09/18 09:21:54;;;;;;;20.90;9.43;;;;;;;40.48;35.25;101256.16;6100330;23;20538;-76
2022/09/18 09:24:55;;;;;;;20.93;10.03;;;;;;;41.19;34.38;101256.84;6100554;23;20390;-79
2022/09/18 09:27:24;;;;;;;25.57;11.00;;;;;;;41.16;34.06;101245.78;6081538;23;20413;-77
2022/09/18 09:30:04;;;;;;;28.47;11.03;;;;;;;40.79;34.62;101256.09;6100490;23;20448;-76
2022/09/18 09:32:41;;;;;;;16.43;9.60;;;;;;;40.76;35.25;101257.53;6126692;23;20362;-78
2022/09/18 09:35:26;;;;;;;20.50;11.40;;;;;;;41.45;33.84;101243.25;6100417;23;20422;-77
2022/09/18 09:37:53;;;;;;;20.43;9.50;;;;;;;41.10;34.39;101253.28;6100528;23;20413;-77
2022/09/18 09:40:39;;;;;;;27.33;11.03;;;;;;;40.77;34.59;101255.63;6100199;23;20468;-78
2022/09/18 09:43:19;;;;;;;30.90;11.10;;;;;;;40.88;34.69;101237.84;6120932;23;20437;-77
2022/09/18 09:45:53;;;;;;;31.93;11.20;;;;;;;41.15;34.41;101236.00;6124959;23;20745;-76
2022/09/18 09:48:40;;;;;;;23.20;10.70;;;;;;;41.55;33.29;101236.66;6124962;23;20445;-77
2022/09/18 09:51:25;;;;;;;28.00;10.60;;;;;;;42.04;33.08;101229.00;6124616;23;20474;-76
2022/09/18 09:53:54;;;;;;;24.10;9.90;;;;;;;41.53;34.11;101228.81;6122980;23;20418;-75
2022/09/18 09:56:49;;;;;;;22.33;10.70;;;;;;;41.31;34.55;101223.50;6124629;23;20394;-75
2022/09/18 09:59:56;;;;;;;21.23;11.00;;;;;;;41.18;34.11;101233.44;6123422;23;20497;-75
2022/09/18 10:02:35;;;;;;;31.50;9.07;;;;;;;41.94;33.22;101219.28;6112998;23;20857;-75
2022/09/18 10:05:21;;;;;;;17.20;9.13;;;;;;;41.56;33.79;101219.19;6124458;23;20393;-76
2022/09/18 10:08:09;;;;;;;20.90;11.30;;;;;;;41.18;34.73;101210.84;6124322;23;20437;-74
2022/09/18 10:10:56;;;;;;;27.67;10.97;;;;;;;41.03;34.77;101206.72;6123516;23;20420;-74
2022/09/18 10:13:26;;;;;;;20.27;8.73;;;;;;;41.06;34.08;101203.34;6121735;23;20386;-75
2022/09/18 10:16:17;;;;;;;25.80;11.63;;;;;;;40.47;35.49;101211.88;6122703;23;20784;-75
2022/09/18 10:18:45;;;;;;;27.10;11.37;;;;;;;41.20;34.10;101220.31;6122412;23;20418;-76
2022/09/18 10:21:25;;;;;;;19.93;11.30;;;;;;;40.68;35.13;101214.78;6122361;23;20543;-75
2022/09/18 10:24:14;;;;;;;21.83;10.90;;;;;;;41.11;34.45;101205.91;6121880;23;20468;-75
2022/09/18 10:26:44;;;;;;;23.90;12.07;;;;;;;41.30;34.47;101203.66;6125082;23;20432;-76
2022/09/18 10:29:10;;;;;;;33.57;15.30;;;;;;;41.19;34.48;101207.84;6122493;23;20410;-75
2022/09/18 10:31:59;;;;;;;23.90;10.47;;;;;;;41.13;34.02;101198.22;6122514;23;20477;-75
2022/09/18 10:34:49;;;;;;;22.90;11.50;;;;;;;41.16;34.59;101186.69;6121776;23;20767;-75
2022/09/18 10:37:39;;;;;;;27.53;10.37;;;;;;;41.60;33.89;101190.97;6120281;23;20473;-74
2022/09/18 10:40:25;;;;;;;18.70;8.87;;;;;;;41.16;34.76;101189.41;6122099;23;20430;-75
2022/09/18 10:42:54;;;;;;;26.70;9.30;;;;;;;41.05;34.43;101182.69;6121696;23;20449;-75
2022/09/18 10:45:29;;;;;;;23.13;11.03;;;;;;;41.31;34.04;101172.59;6122317;23;20918;-82
2022/09/18 10:48:15;;;;;;;20.60;10.57;;;;;;;41.23;33.99;101186.22;6124048;23;20472;-79
2022/09/18 10:51:15;;;;;;;20.97;10.07;;;;;;;41.39;34.27;101189.28;6123728;23;20382;-76
2022/09/18 10:53:41;;;;;;;24.93;8.57;;;;;;;41.28;33.80;101191.50;6125035;23;20477;-76
2022/09/18 10:56:20;;;;;;;17.50;10.30;;;;;;;41.56;33.31;101195.50;6124365;23;20488;-76
2022/09/18 10:58:46;;;;;;;27.43;11.57;;;;;;;41.51;33.49;101192.94;6123150;23;20405;-77
2022/09/18 11:01:14;;;;;;;31.23;13.93;;;;;;;41.53;33.72;101189.88;6124378;23;20436;-76
2022/09/18 11:03:44;;;;;;;19.63;10.67;;;;;;;41.08;34.35;101182.06;6124163;23;20718;-76
2022/09/18 11:06:25;;;;;;;33.80;10.87;;;;;;;40.81;33.96;101180.41;6124083;23;20825;-76
2022/09/18 11:08:57;;;;;;;54.20;11.13;;;;;;;41.27;33.81;101168.13;6124199;23;20393;-75
2022/09/18 11:11:30;;;;;;;24.80;11.03;;;;;;;41.42;33.69;101175.00;6126357;23;20402;-77
2022/09/18 11:14:01;;;;;;;23.50;9.50;;;;;;;41.20;33.72;101171.31;6123003;23;20720;-76
2022/09/18 11:16:38;;;;;;;17.03;10.93;;;;;;;41.97;32.94;101168.78;6121290;23;20402;-76
2022/09/18 11:19:27;;;;;;;18.77;10.23;;;;;;;41.09;34.08;101170.06;6123276;23;20447;-77
2022/09/18 11:21:55;;;;;;;24.80;12.23;;;;;;;41.67;33.15;101168.69;6118304;23;20445;-77
2022/09/18 11:24:29;;;;;;;17.63;9.90;;;;;;;41.39;33.76;101159.31;6123417;23;20522;-78
2022/09/18 11:26:59;;;;;;;22.43;10.50;;;;;;;41.38;33.96;101163.97;6117920;23;20405;-76
2022/09/18 11:29:29;;;;;;;20.07;9.07;;;;;;;41.05;33.87;101148.13;6123598;23;20389;-77
2022/09/18 11:31:58;;;;;;;16.80;10.03;;;;;;;41.18;34.12;101145.53;6123365;23;20400;-77
2022/09/18 11:34:30;;;;;;;30.03;10.60;;;;;;;41.44;33.80;101142.81;6122965;23;20414;-76